createdAt,value
2022-08-29T00:01:23.084Z,5.47
2022-08-29T00:03:50.541Z,6.10
2022-08-29T00:06:17.794Z,5.30
2022-08-29T00:08:44.989Z,5.83
2022-08-29T00:11:12.485Z,5.67
2022-08-29T00:13:39.967Z,5.50
2022-08-29T00:16:07.377Z,5.67
2022-08-29T00:18:35.156Z,5.30
2022-08-29T00:21:03.974Z,5.40
2022-08-29T00:23:31.191Z,5.73
2022-08-29T00:25:58.437Z,5.33
2022-08-29T00:28:25.706Z,5.43
2022-08-29T00:30:52.908Z,5.00
2022-08-29T00:33:20.289Z,5.43
2022-08-29T00:35:48.016Z,4.83
2022-08-29T00:38:19.174Z,5.27
2022-08-29T00:40:53.127Z,5.00
2022-08-29T00:43:30.438Z,4.93
2022-08-29T00:46:35.190Z,5.90
2022-08-29T00:49:39.236Z,4.10
2022-08-29T00:52:14.713Z,5.30
2022-08-29T00:54:45.519Z,4.93
2022-08-29T00:57:13.729Z,4.80
2022-08-29T00:59:41.571Z,4.57
2022-08-29T01:02:11.202Z,4.40
2022-08-29T01:04:39.674Z,4.53
2022-08-29T01:07:08.745Z,4.60
2022-08-29T01:09:38.230Z,4.40
2022-08-29T01:12:19.799Z,4.80
2022-08-29T01:14:52.531Z,5.07
2022-08-29T01:17:28.159Z,5.40
2022-08-29T01:20:17.668Z,3.93
2022-08-29T01:22:55.039Z,4.73
2022-08-29T01:25:26.213Z,5.00
2022-08-29T01:28:09.945Z,4.67
2022-08-29T01:30:37.073Z,4.90
2022-08-29T01:33:04.430Z,4.40
2022-08-29T01:35:32.082Z,4.40
2022-08-29T01:38:00.844Z,4.73
2022-08-29T01:40:30.129Z,4.90
2022-08-29T01:42:57.699Z,4.20
2022-08-29T01:45:25.012Z,4.50
2022-08-29T01:47:52.200Z,4.60
2022-08-29T01:50:19.946Z,3.93
2022-08-29T01:52:47.071Z,4.67
2022-08-29T01:55:14.311Z,4.40
2022-08-29T01:57:41.868Z,3.70
2022-08-29T02:00:11.988Z,4.60
2022-08-29T02:02:40.969Z,4.47
2022-08-29T02:05:09.561Z,4.80
2022-08-29T02:07:36.687Z,4.90
2022-08-29T02:10:04.851Z,4.30
2022-08-29T02:12:33.026Z,4.20
2022-08-29T02:15:00.656Z,4.00
2022-08-29T02:17:28.140Z,4.23
2022-08-29T02:19:55.248Z,3.60
2022-08-29T02:22:22.419Z,4.00
2022-08-29T02:24:49.720Z,4.13
2022-08-29T02:27:16.821Z,4.50
2022-08-29T02:29:43.968Z,4.43
2022-08-29T02:32:13.591Z,3.97
2022-08-29T02:34:44.781Z,3.90
2022-08-29T02:37:15.347Z,3.90
2022-08-29T02:39:42.455Z,4.00
2022-08-29T02:42:09.603Z,4.10
2022-08-29T02:44:36.750Z,4.00
2022-08-29T02:47:04.106Z,4.20
2022-08-29T02:49:31.305Z,4.03
2022-08-29T02:51:59.742Z,4.30
2022-08-29T02:54:26.831Z,4.47
2022-08-29T02:56:53.992Z,3.10
2022-08-29T02:59:21.210Z,3.90
2022-08-29T03:01:48.431Z,3.47
2022-08-29T03:04:15.577Z,3.70
2022-08-29T03:06:42.756Z,3.20
2022-08-29T03:09:09.951Z,3.53
2022-08-29T03:11:37.103Z,4.07
2022-08-29T03:14:04.898Z,2.87
2022-08-29T03:16:35.104Z,3.67
2022-08-29T03:19:05.268Z,3.97
2022-08-29T03:21:33.472Z,3.43
2022-08-29T03:24:00.667Z,3.63
2022-08-29T03:26:27.856Z,4.03
2022-08-29T03:28:54.992Z,3.47
2022-08-29T03:31:22.372Z,3.43
2022-08-29T03:33:49.779Z,3.50
2022-08-29T03:36:17.167Z,3.33
2022-08-29T03:38:48.412Z,4.10
2022-08-29T03:41:24.806Z,4.00
2022-08-29T03:43:52.629Z,4.37
2022-08-29T03:46:19.859Z,3.20
2022-08-29T03:48:47.162Z,2.60
2022-08-29T03:51:15.309Z,3.53
2022-08-29T03:53:43.190Z,3.27
2022-08-29T03:56:10.880Z,3.07
2022-08-29T03:58:50.438Z,3.47
2022-08-29T04:01:22.610Z,3.60
2022-08-29T04:03:50.472Z,3.30
2022-08-29T04:06:17.988Z,3.70
2022-08-29T04:08:47.424Z,3.37
2022-08-29T04:11:16.207Z,2.73
2022-08-29T04:13:43.397Z,2.70
2022-08-29T04:16:15.909Z,2.93
2022-08-29T04:18:43.510Z,3.20
2022-08-29T04:21:10.674Z,3.10
2022-08-29T04:23:40.750Z,3.07
2022-08-29T04:26:35.547Z,3.20
2022-08-29T04:29:04.036Z,3.47
2022-08-29T04:31:31.330Z,3.50
2022-08-29T04:33:58.550Z,3.07
2022-08-29T04:36:26.243Z,3.30
2022-08-29T04:38:55.059Z,3.37
2022-08-29T04:41:22.673Z,3.37
2022-08-29T04:43:49.871Z,3.00
2022-08-29T04:46:23.950Z,2.50
2022-08-29T04:48:53.211Z,2.63
2022-08-29T04:51:21.167Z,2.87
2022-08-29T04:53:53.414Z,2.50
2022-08-29T04:56:25.020Z,2.67
2022-08-29T04:58:55.176Z,2.83
2022-08-29T05:01:24.448Z,2.60
2022-08-29T05:03:53.267Z,2.67
2022-08-29T05:06:22.917Z,1.97
2022-08-29T05:08:59.037Z,2.63
2022-08-29T05:11:29.362Z,2.47
2022-08-29T05:14:01.671Z,2.13
2022-08-29T05:16:30.681Z,1.87
2022-08-29T05:18:59.667Z,2.10
2022-08-29T05:21:33.955Z,2.30
2022-08-29T05:24:08.589Z,2.27
2022-08-29T05:26:43.753Z,1.93
2022-08-29T05:29:12.779Z,2.03
2022-08-29T05:31:42.112Z,2.10
2022-08-29T05:34:32.288Z,2.10
2022-08-29T05:37:00.842Z,1.93
2022-08-29T05:39:28.001Z,1.57
2022-08-29T05:41:56.301Z,1.77
2022-08-29T05:44:23.968Z,1.50
2022-08-29T05:46:51.489Z,1.77
2022-08-29T05:49:22.106Z,1.87
2022-08-29T05:51:53.453Z,1.83
2022-08-29T05:54:24.801Z,1.80
2022-08-29T05:56:57.601Z,1.57
2022-08-29T05:59:26.079Z,1.30
2022-08-29T06:02:45.008Z,1.13
2022-08-29T06:05:17.829Z,1.70
2022-08-29T06:07:48.494Z,1.70
2022-08-29T06:10:15.709Z,1.30
2022-08-29T06:12:43.012Z,1.90
2022-08-29T06:15:10.629Z,1.13
2022-08-29T06:17:38.592Z,1.07
2022-08-29T06:20:12.539Z,1.23
2022-08-29T06:22:42.352Z,1.67
2022-08-29T06:25:28.326Z,1.43
2022-08-29T06:27:57.700Z,1.00
2022-08-29T06:30:25.035Z,1.40
2022-08-29T06:33:26.327Z,1.00
2022-08-29T06:35:53.565Z,1.30
2022-08-29T06:38:21.086Z,1.53
2022-08-29T06:40:48.478Z,1.30
2022-08-29T06:43:15.654Z,1.27
2022-08-29T06:45:44.016Z,1.00
2022-08-29T06:48:11.350Z,1.20
2022-08-29T06:50:45.412Z,1.10
2022-08-29T06:53:26.819Z,1.47
2022-08-29T06:55:55.670Z,1.20
2022-08-29T06:58:22.843Z,1.03
2022-08-29T07:00:50.116Z,1.20
2022-08-29T07:03:17.775Z,1.10
2022-08-29T07:05:52.540Z,1.67
2022-08-29T07:08:20.227Z,1.50
2022-08-29T07:10:47.698Z,1.20
2022-08-29T07:13:15.037Z,0.80
2022-08-29T07:15:42.519Z,0.83
2022-08-29T07:18:10.249Z,0.93
2022-08-29T07:20:40.227Z,1.30
2022-08-29T07:23:08.833Z,1.07
2022-08-29T07:25:37.448Z,1.13
2022-08-29T07:28:05.948Z,1.17
2022-08-29T07:30:33.654Z,1.07
2022-08-29T07:33:00.990Z,1.03
2022-08-29T07:35:31.196Z,1.20
2022-08-29T07:38:02.066Z,1.13
2022-08-29T07:40:29.870Z,1.00
2022-08-29T07:42:57.233Z,1.60
2022-08-29T07:45:24.484Z,1.13
2022-08-29T07:47:54.030Z,1.00
2022-08-29T07:50:21.408Z,0.90
2022-08-29T07:52:48.707Z,1.20
2022-08-29T07:55:16.021Z,1.13
2022-08-29T07:57:43.189Z,1.00
2022-08-29T08:00:12.383Z,1.20
2022-08-29T08:02:39.752Z,1.00
2022-08-29T08:05:07.802Z,1.30
2022-08-29T08:07:36.219Z,1.00
2022-08-29T08:10:08.787Z,1.37
2022-08-29T08:12:36.036Z,1.53
2022-08-29T08:15:03.788Z,1.27
2022-08-29T08:17:30.986Z,0.90
2022-08-29T08:19:58.141Z,1.07
2022-08-29T08:22:25.443Z,1.20
2022-08-29T08:24:52.816Z,1.03
2022-08-29T08:27:20.135Z,1.33
2022-08-29T08:29:47.276Z,1.20
2022-08-29T08:32:14.952Z,1.30
2022-08-29T08:34:43.097Z,0.80
2022-08-29T08:37:11.575Z,1.30
2022-08-29T08:39:43.171Z,1.00
2022-08-29T08:42:42.511Z,1.33
2022-08-29T08:45:37.756Z,2.00
2022-08-29T08:48:16.114Z,1.97
2022-08-29T08:50:59.724Z,1.50
2022-08-29T08:53:33.883Z,1.07
2022-08-29T08:56:07.493Z,0.90
2022-08-29T08:58:57.752Z,0.93
2022-08-29T09:01:47.500Z,1.27
2022-08-29T09:04:39.373Z,1.17
2022-08-29T09:07:15.206Z,1.17
2022-08-29T09:10:03.548Z,1.37
2022-08-29T09:13:10.090Z,1.47
2022-08-29T09:15:43.973Z,1.00
2022-08-29T09:18:35.432Z,1.20
2022-08-29T09:21:29.988Z,1.53
2022-08-29T09:23:57.818Z,1.27
2022-08-29T09:26:27.232Z,1.43
2022-08-29T09:28:55.314Z,1.03
2022-08-29T09:31:34.968Z,1.03
2022-08-29T09:34:13.072Z,1.43
2022-08-29T09:36:48.540Z,1.83
2022-08-29T09:39:33.983Z,1.20
2022-08-29T09:42:23.303Z,1.10
2022-08-29T09:44:59.191Z,0.87
2022-08-29T09:47:29.520Z,1.40
2022-08-29T09:50:02.446Z,1.10
2022-08-29T09:52:29.985Z,1.23
2022-08-29T09:54:57.671Z,1.00
2022-08-29T09:57:27.909Z,0.90
2022-08-29T10:00:13.325Z,1.20
2022-08-29T10:02:43.917Z,0.90
2022-08-29T10:05:29.073Z,1.10
2022-08-29T10:07:58.166Z,1.10
2022-08-29T10:10:28.802Z,1.20
2022-08-29T10:13:15.520Z,1.30
2022-08-29T10:15:52.279Z,1.30
2022-08-29T10:18:37.325Z,1.27
2022-08-29T10:21:24.506Z,1.30
2022-08-29T10:23:54.673Z,1.50
2022-08-29T10:26:47.668Z,1.70
2022-08-29T10:29:31.425Z,1.10
2022-08-29T10:32:15.806Z,1.40
2022-08-29T10:35:06.485Z,1.37
2022-08-29T10:37:55.475Z,1.13
2022-08-29T10:40:52.687Z,1.00
2022-08-29T10:43:32.060Z,1.30
2022-08-29T10:46:17.316Z,0.90
2022-08-29T10:49:07.985Z,1.00
2022-08-29T10:51:40.468Z,1.10
2022-08-29T10:54:25.787Z,1.20
2022-08-29T10:56:54.915Z,1.20
2022-08-29T10:59:34.727Z,1.10
2022-08-29T11:02:28.909Z,1.30
2022-08-29T11:05:02.958Z,1.30
2022-08-29T11:07:40.045Z,1.17
2022-08-29T11:10:17.749Z,1.23
2022-08-29T11:13:00.259Z,1.00
2022-08-29T11:15:42.746Z,1.40
2022-08-29T11:18:12.748Z,0.90
2022-08-29T11:20:46.907Z,1.10
2022-08-29T11:23:38.818Z,1.23
2022-08-29T11:26:33.972Z,1.37
2022-08-29T11:29:25.590Z,0.93
2022-08-29T11:32:10.855Z,1.00
2022-08-29T11:35:18.166Z,0.80
2022-08-29T11:38:19.233Z,1.23
2022-08-29T11:44:11.916Z,0.80
2022-08-29T11:46:48.883Z,0.80
2022-08-29T11:49:36.300Z,0.77
2022-08-29T11:52:09.237Z,0.77
2022-08-29T11:54:37.103Z,0.90
2022-08-29T11:57:04.471Z,1.10
2022-08-29T11:59:53.816Z,0.80
2022-08-29T12:02:30.854Z,2.07
2022-08-29T12:05:02.441Z,1.23
2022-08-29T12:08:00.407Z,1.00
2022-08-29T12:10:50.532Z,1.63
2022-08-29T12:13:47.400Z,1.00
2022-08-29T12:16:18.301Z,1.50
2022-08-29T12:19:00.359Z,1.50
2022-08-29T12:21:44.425Z,0.87
2022-08-29T12:24:40.666Z,1.07
2022-08-29T12:28:06.018Z,0.90
2022-08-29T12:30:45.403Z,1.03
2022-08-29T12:33:50.574Z,1.10
2022-08-29T12:36:52.394Z,1.07
2022-08-29T12:39:40.298Z,1.00
2022-08-29T12:42:34.017Z,0.90
2022-08-29T12:45:11.863Z,0.80
2022-08-29T12:47:46.121Z,0.97
2022-08-29T12:50:34.547Z,0.93
2022-08-29T12:53:26.734Z,0.80
2022-08-29T12:55:55.617Z,0.90
2022-08-29T12:58:42.926Z,0.80
2022-08-29T13:01:31.463Z,1.10
2022-08-29T13:04:05.683Z,0.90
2022-08-29T13:06:34.637Z,0.87
2022-08-29T13:09:02.988Z,0.73
2022-08-29T13:11:32.552Z,0.80
2022-08-29T13:14:10.050Z,0.70
2022-08-29T13:16:40.790Z,0.70
2022-08-29T13:19:25.015Z,1.23
2022-08-29T13:22:04.280Z,0.70
2022-08-29T13:24:32.035Z,1.13
2022-08-29T13:27:04.970Z,1.00
2022-08-29T13:29:42.307Z,0.80
2022-08-29T13:32:18.833Z,0.77
2022-08-29T13:35:19.398Z,0.90
2022-08-29T13:38:16.983Z,0.77
2022-08-29T13:40:48.494Z,0.70
2022-08-29T13:43:43.319Z,0.80
2022-08-29T13:46:15.085Z,1.10
2022-08-29T13:48:43.768Z,0.87
2022-08-29T13:51:11.637Z,0.53
2022-08-29T13:53:38.852Z,0.80
2022-08-29T13:56:23.840Z,1.17
2022-08-29T13:58:51.475Z,2.03
2022-08-29T14:01:30.548Z,5.30
2022-08-29T14:04:03.566Z,4.97
2022-08-29T14:06:34.114Z,13.23
2022-08-29T14:09:02.103Z,18.30
2022-08-29T14:11:29.451Z,13.77
2022-08-29T14:13:56.786Z,11.07
2022-08-29T14:16:25.035Z,9.93
2022-08-29T14:18:53.832Z,5.83
2022-08-29T14:21:21.689Z,7.23
2022-08-29T14:23:51.571Z,6.87
2022-08-29T14:26:19.156Z,6.63
2022-08-29T14:28:48.171Z,5.67
2022-08-29T14:31:15.903Z,3.43
2022-08-29T14:33:43.127Z,2.90
2022-08-29T14:36:12.379Z,2.70
2022-08-29T14:38:39.619Z,2.43
2022-08-29T14:41:06.919Z,2.20
2022-08-29T14:43:37.819Z,2.33
2022-08-29T14:46:07.519Z,2.30
2022-08-29T14:48:34.875Z,1.80
2022-08-29T14:51:06.361Z,1.87
2022-08-29T14:53:37.894Z,1.40
2022-08-29T14:56:44.751Z,1.30
2022-08-29T14:59:08.774Z,1.43
2022-08-29T15:01:38.638Z,1.00
2022-08-29T15:04:05.962Z,1.10
2022-08-29T15:06:37.262Z,1.20
2022-08-29T15:09:04.885Z,1.70
2022-08-29T15:11:32.317Z,1.10
2022-08-29T15:14:04.489Z,1.60
2022-08-29T15:16:34.007Z,1.23
2022-08-29T15:21:53.618Z,1.00
2022-08-29T15:24:29.826Z,0.90
2022-08-29T15:27:00.068Z,0.93
2022-08-29T15:32:11.045Z,1.40
2022-08-29T15:34:39.527Z,0.70
2022-08-29T15:37:11.884Z,1.10
2022-08-29T15:39:40.102Z,1.10
2022-08-29T15:42:12.026Z,1.07
2022-08-29T15:44:44.491Z,1.00
2022-08-29T15:47:11.938Z,0.93
2022-08-29T15:49:39.716Z,0.70
2022-08-29T15:52:07.487Z,1.47
2022-08-29T15:54:36.129Z,0.90
2022-08-29T15:57:03.962Z,1.00
2022-08-29T15:59:56.423Z,1.10
2022-08-29T16:02:18.802Z,0.80
2022-08-29T16:04:47.871Z,1.37
2022-08-29T16:07:15.908Z,1.50
2022-08-29T16:09:43.971Z,1.10
2022-08-29T16:12:12.678Z,0.80
2022-08-29T16:14:58.966Z,1.27
2022-08-29T16:17:29.850Z,1.20
2022-08-29T16:19:58.209Z,0.93
2022-08-29T16:22:27.911Z,1.00
2022-08-29T16:24:55.370Z,1.07
2022-08-29T16:27:24.269Z,0.97
2022-08-29T16:29:52.336Z,1.23
2022-08-29T16:32:19.998Z,0.90
2022-08-29T16:34:47.187Z,0.90
2022-08-29T16:37:14.744Z,1.37
2022-08-29T16:39:42.036Z,1.30
2022-08-29T16:42:12.245Z,1.20
2022-08-29T16:44:40.924Z,1.00
2022-08-29T16:47:08.255Z,1.03
2022-08-29T16:49:35.749Z,0.87
2022-08-29T16:52:04.219Z,0.90
2022-08-29T16:54:32.355Z,0.93
2022-08-29T16:56:59.578Z,1.13
2022-08-29T16:59:26.854Z,1.00
2022-08-29T17:01:54.451Z,1.10
2022-08-29T17:04:24.777Z,1.50
2022-08-29T17:06:52.570Z,0.90
2022-08-29T17:09:25.155Z,2.53
2022-08-29T17:11:56.373Z,1.03
2022-08-29T17:14:27.075Z,1.27
2022-08-29T17:16:55.722Z,1.00
2022-08-29T17:19:23.637Z,1.17
2022-08-29T17:21:51.322Z,1.10
2022-08-29T17:24:21.897Z,1.20
2022-08-29T17:26:49.688Z,1.10
2022-08-29T17:29:17.388Z,1.37
2022-08-29T17:31:45.100Z,0.97
2022-08-29T17:34:12.954Z,1.20
2022-08-29T17:36:41.953Z,1.27
2022-08-29T17:39:10.415Z,0.90
2022-08-29T17:41:39.430Z,1.00
2022-08-29T17:44:10.123Z,1.00
2022-08-29T17:46:37.508Z,1.10
2022-08-29T17:49:08.349Z,1.17
2022-08-29T17:51:36.742Z,1.10
2022-08-29T17:54:08.413Z,1.33
2022-08-29T17:56:45.367Z,1.30
2022-08-29T17:59:14.761Z,2.03
2022-08-29T18:01:45.643Z,1.50
2022-08-29T18:04:14.097Z,1.10
2022-08-29T18:06:42.542Z,1.37
2022-08-29T18:09:12.869Z,1.17
2022-08-29T18:11:42.317Z,1.57
2022-08-29T18:14:10.311Z,1.10
2022-08-29T18:16:40.389Z,1.30
2022-08-29T18:19:07.957Z,1.13
2022-08-29T18:21:35.910Z,1.00
2022-08-29T18:24:25.069Z,1.60
2022-08-29T18:26:52.286Z,1.40
2022-08-29T18:29:20.885Z,1.67
2022-08-29T18:31:49.119Z,1.37
2022-08-29T18:34:16.631Z,1.40
2022-08-29T18:36:45.667Z,1.60
2022-08-29T18:39:19.732Z,1.30
2022-08-29T18:41:47.654Z,1.13
2022-08-29T18:44:14.862Z,1.17
2022-08-29T18:47:05.556Z,1.30
2022-08-29T18:49:54.553Z,1.60
2022-08-29T18:52:21.900Z,1.70
2022-08-29T18:54:49.283Z,1.03
2022-08-29T18:57:16.588Z,1.47
2022-08-29T18:59:43.922Z,1.20
2022-08-29T19:02:13.084Z,1.20
2022-08-29T19:04:41.571Z,1.20
2022-08-29T19:07:09.439Z,0.90
2022-08-29T19:09:45.707Z,1.33
2022-08-29T19:12:13.077Z,1.30
2022-08-29T19:14:46.147Z,1.00
2022-08-29T19:17:13.728Z,1.00
2022-08-29T19:19:59.792Z,1.50
2022-08-29T19:22:31.511Z,0.90
2022-08-29T19:24:58.934Z,1.00
2022-08-29T19:27:42.606Z,1.10
2022-08-29T19:30:13.587Z,1.33
2022-08-29T19:32:49.332Z,1.30
2022-08-29T19:35:16.608Z,1.10
2022-08-29T19:37:44.845Z,1.07
2022-08-29T19:40:16.471Z,1.30
2022-08-29T19:42:47.606Z,1.20
2022-08-29T19:45:17.253Z,1.30
2022-08-29T19:47:44.871Z,1.60
2022-08-29T19:50:14.422Z,1.40
2022-08-29T19:56:35.622Z,1.50
2022-08-29T19:59:04.649Z,1.20
2022-08-29T20:01:34.134Z,2.20
2022-08-29T20:04:03.829Z,0.90
2022-08-29T20:06:31.028Z,1.10
2022-08-29T20:08:58.681Z,1.33
2022-08-29T20:11:28.001Z,1.67
2022-08-29T20:13:58.787Z,1.33
2022-08-29T20:16:37.373Z,1.30
2022-08-29T20:19:06.137Z,1.80
2022-08-29T20:21:34.949Z,0.90
2022-08-29T20:24:02.568Z,1.10
2022-08-29T20:26:32.884Z,1.27
2022-08-29T20:29:02.484Z,0.90
2022-08-29T20:31:30.051Z,1.47
2022-08-29T20:33:59.829Z,1.33
2022-08-29T20:36:46.721Z,1.00
2022-08-29T20:39:17.204Z,1.60
2022-08-29T20:42:02.347Z,1.60
2022-08-29T20:44:38.059Z,4.57
2022-08-29T20:47:07.257Z,12.17
2022-08-29T20:49:37.488Z,14.67
2022-08-29T20:52:05.867Z,16.90
2022-08-29T20:54:34.397Z,15.97
2022-08-29T20:57:01.619Z,13.27
2022-08-29T20:59:32.589Z,11.07
2022-08-29T21:02:03.221Z,10.23
2022-08-29T21:04:49.033Z,9.20
2022-08-29T21:07:20.632Z,7.57
2022-08-29T21:09:50.637Z,7.50
2022-08-29T21:12:18.926Z,6.60
2022-08-29T21:14:46.877Z,6.80
2022-08-29T21:17:15.051Z,5.47
2022-08-29T21:19:43.148Z,5.97
2022-08-29T21:22:12.902Z,5.90
2022-08-29T21:24:40.559Z,4.17
2022-08-29T21:27:07.770Z,3.90
2022-08-29T21:29:34.953Z,3.80
2022-08-29T21:32:02.157Z,3.93
2022-08-29T21:34:29.409Z,3.33
2022-08-29T21:36:56.528Z,4.20
2022-08-29T21:39:29.025Z,3.83
2022-08-29T21:41:57.238Z,2.17
2022-08-29T21:44:24.452Z,2.80
2022-08-29T21:46:52.408Z,3.00
2022-08-29T21:49:21.907Z,2.23
2022-08-29T21:51:49.866Z,2.63
2022-08-29T21:54:18.286Z,2.00
2022-08-29T21:56:46.364Z,2.20
2022-08-29T21:59:17.789Z,1.93
2022-08-29T22:01:46.670Z,1.90
2022-08-29T22:04:19.289Z,2.43
2022-08-29T22:06:59.734Z,2.33
2022-08-29T22:09:27.760Z,2.33
2022-08-29T22:11:55.154Z,1.90
2022-08-29T22:14:42.223Z,1.50
2022-08-29T22:17:09.387Z,2.00
2022-08-29T22:19:36.706Z,1.67
2022-08-29T22:22:04.604Z,1.73
2022-08-29T22:24:32.297Z,1.63
2022-08-29T22:27:00.102Z,1.53
2022-08-29T22:29:27.470Z,1.57
2022-08-29T22:31:56.936Z,1.50
2022-08-29T22:34:24.164Z,1.40
2022-08-29T22:36:54.229Z,1.57
2022-08-29T22:39:21.514Z,1.63
2022-08-29T22:41:51.495Z,1.67
2022-08-29T22:47:06.221Z,1.47
2022-08-29T22:49:34.509Z,1.50
2022-08-29T22:52:02.354Z,1.40
2022-08-29T22:54:35.607Z,1.37
2022-08-29T22:57:11.318Z,1.10
2022-08-29T22:59:39.439Z,1.13
2022-08-29T23:02:06.929Z,1.73
2022-08-29T23:04:37.840Z,1.43
2022-08-29T23:07:07.413Z,1.40
2022-08-29T23:10:28.386Z,1.47
2022-08-29T23:12:55.508Z,1.60
2022-08-29T23:15:22.807Z,1.30
2022-08-29T23:17:50.211Z,1.10
2022-08-29T23:20:19.210Z,1.20
2022-08-29T23:22:46.839Z,1.30
2022-08-29T23:27:56.840Z,1.20
2022-08-29T23:30:26.893Z,1.70
2022-08-29T23:32:55.230Z,1.53
2022-08-29T23:35:23.704Z,1.30
2022-08-29T23:37:54.133Z,1.33
2022-08-29T23:40:21.859Z,1.20
2022-08-29T23:42:49.053Z,1.10
2022-08-29T23:45:16.277Z,1.30
2022-08-29T23:51:46.321Z,1.40
2022-08-29T23:54:16.857Z,1.00
2022-08-29T23:56:53.564Z,1.47
2022-08-29T23:59:39.518Z,1.30
